Time;durP1;ratioP1;P1;durP2;ratioP2;P2;SDS_P1;SDS_P2;PMS_P1;PMS_P2;Temp;Humidity;BMP_temperature;BMP_pressure;BME280_temperature;BME280_humidity;BME280_pressure;Samples;Min_cycle;Max_cycle;Signal;HPM_P1;HPM_P2
2021/01/31 00:01:03;;;;;;;26.67;14.32;;;23.20;99.90;;;;;;5053226;28;20021;-62
2021/01/31 00:03:31;;;;;;;23.85;14.80;;;23.20;99.90;;;;;;5053165;28;20032;-61
2021/01/31 00:06:04;;;;;;;24.98;13.68;;;23.10;99.90;;;;;;5053261;28;20381;-62
2021/01/31 00:08:32;;;;;;;21.30;14.13;;;23.20;99.90;;;;;;5053170;28;20014;-61
2021/01/31 00:11:00;;;;;;;23.95;13.23;;;23.20;99.90;;;;;;5052997;28;20051;-61
2021/01/31 00:13:29;;;;;;;19.98;13.00;;;23.30;99.90;;;;;;5052958;28;20558;-61
2021/01/31 00:15:58;;;;;;;23.38;12.80;;;23.30;99.90;;;;;;5053084;28;20095;-62
2021/01/31 00:18:28;;;;;;;18.75;12.75;;;23.20;99.90;;;;;;5053142;28;20028;-62
2021/01/31 00:20:57;;;;;;;22.90;12.80;;;23.30;99.90;;;;;;5053100;28;20049;-60
2021/01/31 00:23:24;;;;;;;21.83;11.57;;;23.40;99.90;;;;;;5055105;28;20029;-62
2021/01/31 00:25:52;;;;;;;23.83;12.80;;;23.40;99.90;;;;;;5057406;28;20408;-62
2021/01/31 00:28:22;;;;;;;21.05;12.70;;;23.50;99.90;;;;;;5057251;28;20044;-62
2021/01/31 00:30:49;;;;;;;17.63;12.93;;;23.60;99.90;;;;;;5057142;28;20021;-62
2021/01/31 00:33:24;;;;;;;18.98;12.45;;;23.70;99.90;;;;;;5057009;28;20036;-61
2021/01/31 00:35:53;;;;;;;18.65;11.70;;;23.80;99.90;;;;;;5057027;28;20064;-61
2021/01/31 00:38:22;;;;;;;24.92;12.90;;;23.80;99.90;;;;;;5057011;28;20052;-60
2021/01/31 00:40:50;;;;;;;20.80;12.83;;;23.80;99.90;;;;;;5057123;28;20032;-61
2021/01/31 00:43:18;;;;;;;20.75;11.45;;;23.90;99.90;;;;;;5056770;28;20082;-62
2021/01/31 00:45:45;;;;;;;17.63;10.65;;;23.80;99.90;;;;;;5056758;28;20028;-62
2021/01/31 00:48:13;;;;;;;22.02;12.13;;;23.80;99.90;;;;;;5055329;28;20028;-62
2021/01/31 00:50:41;;;;;;;24.05;12.73;;;23.70;99.90;;;;;;5055234;28;20032;-61
2021/01/31 00:53:09;;;;;;;25.05;13.48;;;23.70;99.90;;;;;;5056547;28;20029;-61
2021/01/31 00:55:37;;;;;;;21.52;12.82;;;23.60;99.90;;;;;;5055373;28;20029;-58
2021/01/31 00:58:05;;;;;;;23.67;13.52;;;23.80;99.90;;;;;;5056765;28;20362;-59
2021/01/31 01:00:35;;;;;;;24.73;12.95;;;23.70;99.90;;;;;;5056637;28;20021;-61
2021/01/31 01:03:04;;;;;;;23.27;12.88;;;23.60;99.90;;;;;;5056448;28;20036;-59
2021/01/31 01:05:32;;;;;;;20.92;12.85;;;23.70;99.90;;;;;;5056538;28;20028;-60
2021/01/31 01:08:00;;;;;;;16.85;11.73;;;23.80;99.90;;;;;;5056423;28;20025;-61
2021/01/31 01:10:31;;;;;;;22.90;12.05;;;23.80;99.90;;;;;;5054876;28;20033;-59
2021/01/31 01:12:59;;;;;;;19.35;12.75;;;24.00;99.90;;;;;;5056316;28;20439;-59
2021/01/31 01:15:28;;;;;;;17.95;11.98;;;24.00;99.90;;;;;;5056264;28;20021;-59
2021/01/31 01:17:56;;;;;;;20.35;12.63;;;24.10;99.90;;;;;;5056293;28;20025;-59
2021/01/31 01:20:25;;;;;;;22.90;12.38;;;24.00;99.90;;;;;;5056288;28;20021;-59
2021/01/31 01:22:52;;;;;;;21.42;12.05;;;23.90;99.90;;;;;;5056145;28;20028;-59
2021/01/31 01:25:22;;;;;;;21.00;13.43;;;23.90;99.90;;;;;;5056126;28;20477;-62
2021/01/31 01:27:49;;;;;;;24.92;13.05;;;23.70;99.90;;;;;;5056194;28;20476;-63
2021/01/31 01:30:20;;;;;;;21.83;12.75;;;23.60;99.90;;;;;;5056195;28;20021;-59
2021/01/31 01:32:47;;;;;;;16.17;10.63;;;23.50;99.90;;;;;;5056053;28;20384;-59
2021/01/31 01:35:15;;;;;;;19.13;11.13;;;23.50;99.90;;;;;;5055939;28;20021;-59
2021/01/31 01:37:42;;;;;;;21.52;11.32;;;23.40;99.90;;;;;;5055926;28;20017;-59
2021/01/31 01:40:23;;;;;;;26.02;11.07;;;23.30;99.90;;;;;;5055984;28;20032;-59
2021/01/31 01:42:51;;;;;;;17.55;10.07;;;23.20;99.90;;;;;;5055842;28;20040;-60
2021/01/31 01:45:20;;;;;;;18.08;10.98;;;23.30;99.90;;;;;;5055804;28;20381;-60
2021/01/31 01:47:50;;;;;;;20.23;11.80;;;23.40;99.90;;;;;;5055791;28;20021;-59
2021/01/31 01:50:25;;;;;;;16.40;10.77;;;23.50;99.90;;;;;;5055720;28;20025;-59
2021/01/31 01:52:54;;;;;;;20.27;10.10;;;23.50;99.90;;;;;;5056005;28;20024;-59
2021/01/31 01:55:23;;;;;;;22.65;13.18;;;23.60;99.90;;;;;;5055576;28;20385;-59
2021/01/31 01:58:04;;;;;;;21.02;12.77;;;23.40;99.90;;;;;;5055523;28;20078;-59
2021/01/31 02:00:34;;;;;;;17.88;11.45;;;23.30;99.90;;;;;;5055465;28;20025;-59
2021/01/31 02:03:17;;;;;;;19.50;11.68;;;23.20;99.90;;;;;;5055291;28;20035;-59
2021/01/31 02:06:01;;;;;;;22.83;11.85;;;23.20;99.90;;;;;;5055529;28;20025;-59
2021/01/31 02:08:28;;;;;;;18.52;11.65;;;23.20;99.90;;;;;;5055456;28;20351;-59
2021/01/31 02:10:56;;;;;;;19.92;10.45;;;23.20;99.90;;;;;;5055093;28;20393;-59
2021/01/31 02:13:23;;;;;;;17.23;10.85;;;23.10;99.90;;;;;;5055295;28;20039;-59
2021/01/31 02:15:53;;;;;;;15.07;11.50;;;23.10;99.90;;;;;;5055273;28;20028;-59
2021/01/31 02:18:40;;;;;;;17.17;11.57;;;23.20;99.90;;;;;;5055187;28;20025;-60
2021/01/31 02:21:19;;;;;;;20.27;10.52;;;23.20;99.90;;;;;;5055254;28;20470;-59
2021/01/31 02:24:07;;;;;;;16.33;11.73;;;23.20;99.90;;;;;;5055063;28;20025;-59
2021/01/31 02:26:52;;;;;;;18.55;10.57;;;23.10;99.90;;;;;;5054863;28;20067;-59
2021/01/31 02:29:40;;;;;;;18.10;10.80;;;23.00;99.90;;;;;;5054943;28;20028;-59
2021/01/31 02:32:45;;;;;;;21.65;11.00;;;23.00;99.90;;;;;;5054938;28;20361;-59
2021/01/31 02:35:26;;;;;;;19.15;11.10;;;22.80;99.90;;;;;;5054700;28;20029;-61
2021/01/31 02:38:21;;;;;;;17.77;10.60;;;22.80;99.90;;;;;;5054825;28;20027;-60
2021/01/31 02:41:11;;;;;;;18.00;11.60;;;22.80;99.90;;;;;;5054788;28;20021;-59
2021/01/31 02:43:49;;;;;;;31.08;12.05;;;22.80;99.90;;;;;;5054698;28;20481;-64
2021/01/31 02:46:51;;;;;;;20.17;11.68;;;22.80;99.90;;;;;;5054115;28;20373;-63
2021/01/31 02:49:39;;;;;;;23.50;10.85;;;22.80;99.90;;;;;;5053235;28;20017;-63
2021/01/31 02:52:23;;;;;;;23.83;10.85;;;22.70;99.90;;;;;;5054555;28;20025;-63
2021/01/31 02:55:03;;;;;;;20.85;10.75;;;22.70;99.90;;;;;;5053194;28;20025;-63
2021/01/31 02:57:48;;;;;;;21.27;12.60;;;22.60;99.90;;;;;;5054434;28;20031;-63
2021/01/31 03:00:23;;;;;;;26.90;12.85;;;22.60;99.90;;;;;;5054361;28;20048;-63
2021/01/31 03:02:59;;;;;;;19.50;12.50;;;22.60;99.90;;;;;;5054272;28;20053;-63
2021/01/31 03:05:32;;;;;;;22.08;12.20;;;22.60;99.90;;;;;;5053010;28;20535;-63
2021/01/31 03:08:16;;;;;;;19.42;12.18;;;22.60;99.90;;;;;;5054131;28;20021;-61
2021/01/31 03:10:58;;;;;;;19.98;10.88;;;22.50;99.90;;;;;;5053947;28;20017;-62
2021/01/31 03:13:32;;;;;;;19.02;12.05;;;22.40;99.90;;;;;;5054215;28;20053;-61
2021/01/31 03:16:30;;;;;;;18.98;11.88;;;22.40;99.90;;;;;;5054120;28;20388;-61
2021/01/31 03:19:18;;;;;;;16.77;11.07;;;22.50;99.90;;;;;;5054228;28;20025;-62
2021/01/31 03:21:50;;;;;;;22.25;12.32;;;22.50;99.90;;;;;;5053880;28;20051;-64
2021/01/31 03:24:24;;;;;;;17.13;11.90;;;22.60;99.90;;;;;;5053739;28;20071;-62
2021/01/31 03:27:05;;;;;;;19.63;10.38;;;22.70;99.90;;;;;;5052655;28;20495;-64
2021/01/31 03:29:33;;;;;;;23.67;11.85;;;22.80;99.90;;;;;;5053647;28;20103;-63
2021/01/31 03:32:20;;;;;;;21.27;11.15;;;22.80;99.90;;;;;;5053955;28;20017;-64
2021/01/31 03:34:53;;;;;;;18.73;10.10;;;22.90;99.90;;;;;;5053667;28;20024;-63
2021/01/31 03:37:29;;;;;;;22.83;10.50;;;23.00;99.90;;;;;;5053711;28;20537;-65
2021/01/31 03:39:58;;;;;;;18.55;10.50;;;23.10;99.90;;;;;;5053719;28;20268;-63
2021/01/31 03:42:25;;;;;;;19.83;9.20;;;23.10;99.90;;;;;;5053613;28;20017;-64
2021/01/31 03:44:57;;;;;;;16.98;9.93;;;23.20;99.90;;;;;;5053369;28;20021;-64
2021/01/31 03:47:39;;;;;;;26.30;11.35;;;23.30;99.90;;;;;;5053579;28;20021;-63
2021/01/31 03:50:07;;;;;;;22.60;11.27;;;23.50;99.90;;;;;;5053519;28;20028;-64
2021/01/31 03:52:35;;;;;;;17.10;9.35;;;23.60;99.90;;;;;;5053364;28;20021;-63
2021/01/31 03:55:03;;;;;;;23.58;11.75;;;23.60;99.90;;;;;;5053385;28;20477;-63
2021/01/31 03:57:45;;;;;;;18.60;12.45;;;23.60;99.90;;;;;;5052513;28;20108;-62
2021/01/31 04:00:35;;;;;;;18.02;12.20;;;23.50;99.90;;;;;;5053514;28;20029;-63
2021/01/31 04:03:16;;;;;;;22.40;13.07;;;23.30;99.90;;;;;;5053234;28;20032;-66
2021/01/31 04:06:09;;;;;;;22.45;13.07;;;23.10;99.90;;;;;;5053299;28;20024;-64
2021/01/31 04:08:37;;;;;;;19.63;12.23;;;22.80;99.90;;;;;;5053527;28;20099;-64
2021/01/31 04:11:05;;;;;;;21.00;13.13;;;22.70;99.90;;;;;;5053113;28;20068;-64
2021/01/31 04:13:35;;;;;;;18.88;13.07;;;22.80;99.90;;;;;;5053237;28;20029;-62
2021/01/31 04:16:06;;;;;;;17.10;12.00;;;22.70;99.90;;;;;;5053255;28;20053;-64
2021/01/31 04:18:34;;;;;;;17.00;12.45;;;22.50;99.90;;;;;;5053119;28;20098;-64
2021/01/31 04:21:01;;;;;;;21.42;14.93;;;22.40;99.90;;;;;;5053238;28;20527;-64
2021/01/31 04:23:28;;;;;;;22.48;15.25;;;22.40;99.90;;;;;;5052137;28;20042;-66
2021/01/31 04:25:56;;;;;;;17.63;13.07;;;22.40;99.90;;;;;;5053036;28;20025;-59
2021/01/31 04:28:25;;;;;;;15.85;13.85;;;22.50;99.90;;;;;;5053055;28;20416;-60
2021/01/31 04:30:57;;;;;;;23.10;14.02;;;22.40;99.90;;;;;;5053007;28;20025;-54
2021/01/31 04:33:26;;;;;;;19.08;12.25;;;22.30;99.90;;;;;;5053214;28;20082;-63
2021/01/31 04:35:54;;;;;;;19.52;13.55;;;22.40;99.90;;;;;;5052979;28;20519;-63
2021/01/31 04:38:22;;;;;;;23.45;14.35;;;22.50;99.90;;;;;;5052911;28;20389;-64
2021/01/31 04:40:49;;;;;;;22.35;13.38;;;22.40;99.90;;;;;;5052977;28;20024;-64
2021/01/31 04:43:19;;;;;;;19.92;14.30;;;22.30;99.90;;;;;;5052875;28;20025;-64
2021/01/31 04:45:47;;;;;;;22.42;14.13;;;22.30;99.90;;;;;;5053076;28;20468;-61
2021/01/31 04:48:49;;;;;;;18.45;12.80;;;22.40;99.90;;;;;;5052903;28;20029;-61
2021/01/31 04:51:49;;;;;;;19.25;13.77;;;22.40;99.90;;;;;;5026801;28;20029;-61
2021/01/31 04:54:28;;;;;;;19.58;13.85;;;22.40;99.90;;;;;;5029526;28;20397;-61
2021/01/31 04:57:06;;;;;;;18.55;12.40;;;22.40;99.90;;;;;;5052887;28;20384;-62
2021/01/31 04:59:39;;;;;;;20.17;12.40;;;22.40;99.90;;;;;;5052781;28;20531;-61
2021/01/31 05:02:29;;;;;;;18.75;12.30;;;22.40;99.90;;;;;;5052746;28;20112;-62
2021/01/31 05:05:01;;;;;;;21.23;11.15;;;22.50;99.90;;;;;;5052643;28;20388;-62
2021/01/31 05:07:53;;;;;;;16.40;12.52;;;22.60;99.90;;;;;;5052683;28;20018;-60
2021/01/31 05:10:21;;;;;;;17.38;12.18;;;22.70;99.90;;;;;;5055903;28;20384;-63
2021/01/31 05:13:23;;;;;;;20.58;12.02;;;22.70;99.90;;;;;;5056290;28;20045;-61
2021/01/31 05:16:15;;;;;;;18.00;11.73;;;22.70;99.90;;;;;;5033715;28;20033;-60
2021/01/31 05:18:49;;;;;;;15.63;10.98;;;22.50;99.90;;;;;;5056320;28;20029;-61
2021/01/31 05:21:22;;;;;;;21.02;14.13;;;22.40;99.90;;;;;;5056542;28;20025;-61
2021/01/31 05:24:07;;;;;;;19.33;13.65;;;22.50;99.90;;;;;;5056257;28;20059;-61
2021/01/31 05:26:40;;;;;;;18.30;13.07;;;22.40;99.90;;;;;;5056286;28;20539;-61
2021/01/31 05:29:38;;;;;;;17.55;14.18;;;22.40;99.90;;;;;;5056395;28;20017;-60
2021/01/31 05:32:16;;;;;;;19.90;14.70;;;22.40;99.90;;;;;;5056041;28;20017;-61
2021/01/31 05:34:47;;;;;;;21.92;13.75;;;22.50;99.90;;;;;;5055968;28;20033;-60
2021/01/31 05:37:24;;;;;;;17.27;11.90;;;22.50;99.90;;;;;;5055875;28;20440;-60
2021/01/31 05:39:58;;;;;;;25.08;14.30;;;22.40;99.90;;;;;;5056015;28;20025;-61
2021/01/31 05:42:35;;;;;;;19.35;12.40;;;22.50;99.90;;;;;;5055931;28;20017;-60
2021/01/31 05:45:08;;;;;;;18.55;12.30;;;22.40;99.90;;;;;;5055855;28;20021;-58
2021/01/31 05:47:41;;;;;;;20.17;13.25;;;22.40;99.90;;;;;;5055829;28;20382;-61
2021/01/31 05:50:38;;;;;;;16.90;13.05;;;22.40;99.90;;;;;;5055688;28;20021;-61
2021/01/31 05:53:44;;;;;;;21.23;13.05;;;22.40;99.90;;;;;;5050948;28;20505;-63
2021/01/31 05:56:24;;;;;;;20.80;11.75;;;22.30;99.90;;;;;;4994216;28;20030;-59
2021/01/31 05:59:03;;;;;;;18.52;10.10;;;22.30;99.90;;;;;;4994089;28;20053;-55
2021/01/31 06:01:30;;;;;;;21.45;11.25;;;22.40;99.90;;;;;;5034787;28;20497;-50
2021/01/31 06:04:15;;;;;;;20.55;10.60;;;22.40;99.90;;;;;;5055381;28;20450;-53
2021/01/31 06:06:46;;;;;;;19.05;9.35;;;22.40;99.90;;;;;;5055458;28;20378;-52
2021/01/31 06:09:37;;;;;;;17.70;10.07;;;22.40;99.90;;;;;;5055468;28;20021;-58
2021/01/31 06:12:09;;;;;;;16.38;9.93;;;22.50;99.90;;;;;;5055024;28;20049;-50
2021/01/31 06:14:40;;;;;;;20.98;10.05;;;22.60;99.90;;;;;;5055077;28;20091;-54
2021/01/31 06:17:16;;;;;;;16.40;10.23;;;22.60;99.90;;;;;;5055316;28;20060;-58
2021/01/31 06:19:44;;;;;;;18.27;10.07;;;22.60;99.90;;;;;;5054992;28;20465;-64
2021/01/31 06:22:14;;;;;;;19.48;11.55;;;22.60;99.90;;;;;;5054657;28;20051;-63
2021/01/31 06:24:54;;;;;;;22.45;10.85;;;22.50;99.90;;;;;;5055042;28;20033;-64
2021/01/31 06:27:33;;;;;;;17.65;11.63;;;22.50;99.90;;;;;;5055323;28;20025;-57
2021/01/31 06:30:37;;;;;;;15.75;10.15;;;22.60;99.90;;;;;;5054992;28;20025;-61
2021/01/31 06:33:05;;;;;;;15.90;9.57;;;22.70;99.90;;;;;;4993589;28;20077;-66
2021/01/31 06:35:32;;;;;;;18.00;11.57;;;22.70;99.90;;;;;;5044094;28;20033;-64
2021/01/31 06:38:02;;;;;;;16.50;10.55;;;22.70;99.90;;;;;;5054765;28;20358;-60
2021/01/31 06:40:44;;;;;;;14.80;10.63;;;22.80;99.90;;;;;;5055007;28;20453;-65
2021/01/31 06:43:13;;;;;;;16.58;11.82;;;22.80;99.90;;;;;;5054559;28;20032;-63
2021/01/31 06:46:00;;;;;;;18.75;11.38;;;22.80;99.90;;;;;;5054550;28;20029;-59
2021/01/31 06:49:04;;;;;;;15.52;10.57;;;22.70;99.90;;;;;;5054717;28;20032;-60
2021/01/31 06:51:58;;;;;;;18.70;11.57;;;22.60;99.90;;;;;;5046460;28;20128;-52
2021/01/31 06:54:44;;;;;;;20.48;12.00;;;22.50;99.90;;;;;;5054617;28;20025;-59
2021/01/31 06:57:23;;;;;;;19.02;12.13;;;22.40;99.90;;;;;;5054798;28;20025;-62
2021/01/31 06:59:59;;;;;;;22.42;12.38;;;22.30;99.90;;;;;;5054389;28;20100;-63
2021/01/31 07:02:53;;;;;;;20.00;12.30;;;22.30;99.90;;;;;;5054428;28;20055;-63
2021/01/31 07:05:38;;;;;;;21.70;11.90;;;22.20;99.90;;;;;;5054408;28;20036;-63
2021/01/31 07:08:40;;;;;;;20.90;13.73;;;22.10;99.90;;;;;;5054418;28;20424;-63
2021/01/31 07:11:36;;;;;;;21.02;14.07;;;22.10;99.90;;;;;;5054306;28;20044;-63
2021/01/31 07:14:12;;;;;;;14.13;11.65;;;22.00;99.90;;;;;;5054176;28;20075;-63
2021/01/31 07:16:45;;;;;;;21.77;12.90;;;22.00;99.90;;;;;;5054081;28;20500;-63
2021/01/31 07:19:27;;;;;;;22.58;13.38;;;22.00;99.90;;;;;;5054107;28;20086;-63
2021/01/31 07:22:12;;;;;;;21.30;12.55;;;21.90;99.90;;;;;;5053990;28;20075;-64
2021/01/31 07:25:01;;;;;;;23.13;12.88;;;21.90;99.90;;;;;;5053949;28;20070;-62
2021/01/31 07:27:51;;;;;;;20.95;12.23;;;21.90;99.90;;;;;;5052718;28;20029;-62
2021/01/31 07:30:33;;;;;;;18.17;13.20;;;21.70;99.90;;;;;;5053887;28;20108;-63
2021/01/31 07:33:28;;;;;;;22.00;14.48;;;21.80;99.90;;;;;;5053815;28;20642;-64
2021/01/31 07:36:19;;;;;;;18.13;12.73;;;21.80;99.90;;;;;;5053843;28;20067;-64
2021/01/31 07:39:03;;;;;;;21.65;13.40;;;21.80;99.90;;;;;;5053786;28;20469;-64
2021/01/31 07:41:31;;;;;;;19.55;13.45;;;21.80;99.90;;;;;;5053639;28;20434;-63
2021/01/31 07:44:13;;;;;;;23.08;14.13;;;21.80;99.90;;;;;;5052139;28;20059;-63
2021/01/31 07:46:40;;;;;;;24.63;15.18;;;21.80;99.90;;;;;;5053792;28;20017;-63
2021/01/31 07:49:08;;;;;;;23.88;15.20;;;21.70;99.90;;;;;;5052180;28;20025;-64
2021/01/31 07:51:39;;;;;;;17.45;15.32;;;21.60;99.90;;;;;;5053723;28;20428;-63
2021/01/31 07:54:21;;;;;;;21.95;15.43;;;21.60;99.90;;;;;;5053418;28;20420;-63
2021/01/31 07:56:53;;;;;;;23.45;17.35;;;21.60;99.90;;;;;;5053313;28;20115;-63
2021/01/31 07:59:21;;;;;;;21.40;16.02;;;21.60;99.90;;;;;;5053528;28;20116;-63
2021/01/31 08:01:52;;;;;;;20.67;14.95;;;21.50;99.90;;;;;;5053526;28;20047;-63
2021/01/31 08:04:21;;;;;;;24.90;16.42;;;21.50;99.90;;;;;;5052082;28;20033;-64
2021/01/31 08:06:58;;;;;;;18.77;16.33;;;21.50;99.90;;;;;;5053391;28;20096;-64
2021/01/31 08:09:28;;;;;;;22.15;16.05;;;21.50;99.90;;;;;;5053524;28;20052;-64
2021/01/31 08:12:03;;;;;;;23.75;16.58;;;21.40;99.90;;;;;;5053082;28;20037;-63
2021/01/31 08:15:01;;;;;;;24.65;17.27;;;21.40;99.90;;;;;;5053624;28;20064;-64
2021/01/31 08:17:44;;;;;;;21.50;16.85;;;21.40;99.90;;;;;;5053104;28;20055;-65
2021/01/31 08:20:43;;;;;;;23.27;18.58;;;21.40;99.90;;;;;;5053358;28;20052;-62
2021/01/31 08:23:33;;;;;;;23.67;17.60;;;21.40;99.90;;;;;;5053113;28;20167;-62
2021/01/31 08:26:05;;;;;;;23.30;18.40;;;21.20;99.90;;;;;;5053079;28;20487;-63
2021/01/31 08:28:38;;;;;;;22.17;19.80;;;21.20;99.90;;;;;;5053103;28;20021;-62
2021/01/31 08:31:13;;;;;;;22.90;19.58;;;21.20;99.90;;;;;;5053255;28;20480;-60
2021/01/31 08:33:42;;;;;;;21.05;17.40;;;21.10;99.90;;;;;;5052935;28;20497;-63
2021/01/31 08:36:27;;;;;;;20.80;18.60;;;21.00;99.90;;;;;;5052948;28;20056;-62
2021/01/31 08:38:56;;;;;;;26.42;21.60;;;21.00;99.90;;;;;;5052882;28;20496;-62
2021/01/31 08:41:27;;;;;;;22.45;19.92;;;21.00;99.90;;;;;;5052928;28;20028;-61
2021/01/31 08:43:58;;;;;;;27.40;21.42;;;21.00;99.90;;;;;;5053808;28;20566;-61
2021/01/31 08:46:34;;;;;;;24.75;22.20;;;21.00;99.90;;;;;;5056831;28;20016;-61
2021/01/31 08:49:03;;;;;;;23.75;19.33;;;21.00;99.90;;;;;;5056802;28;20047;-61
2021/01/31 08:51:36;;;;;;;27.33;21.35;;;21.00;99.90;;;;;;5056677;28;20040;-61
2021/01/31 08:54:08;;;;;;;28.17;20.90;;;21.00;99.90;;;;;;5056858;28;20021;-61
2021/01/31 08:56:40;;;;;;;22.55;19.33;;;21.00;99.90;;;;;;5056721;28;20029;-62
2021/01/31 08:59:14;;;;;;;24.88;19.77;;;21.00;99.90;;;;;;5056675;28;20405;-61
2021/01/31 09:01:49;;;;;;;22.20;19.73;;;20.90;99.90;;;;;;5056633;28;20470;-61
2021/01/31 09:04:19;;;;;;;22.05;18.40;;;20.90;99.90;;;;;;5056673;28;20025;-61
2021/01/31 09:06:49;;;;;;;21.35;18.70;;;20.90;99.90;;;;;;5056869;28;20013;-61
2021/01/31 09:09:40;;;;;;;22.63;19.00;;;20.80;99.90;;;;;;5056571;28;20377;-61
2021/01/31 09:12:11;;;;;;;22.38;19.77;;;20.80;99.90;;;;;;5056278;28;20048;-61
2021/01/31 09:14:41;;;;;;;30.27;20.42;;;20.90;99.90;;;;;;5056376;28;20358;-60
2021/01/31 09:17:34;;;;;;;23.42;20.40;;;20.80;99.90;;;;;;5056386;28;20032;-60
2021/01/31 09:20:20;;;;;;;26.77;20.80;;;20.90;99.90;;;;;;5053847;28;20062;-64
2021/01/31 09:22:54;;;;;;;26.55;19.90;;;20.90;99.90;;;;;;5056202;28;20029;-60
2021/01/31 09:25:23;;;;;;;23.70;19.63;;;20.80;99.90;;;;;;5056177;28;20025;-60
2021/01/31 09:28:02;;;;;;;20.10;17.67;;;20.80;99.90;;;;;;5056085;28;20025;-61
2021/01/31 09:30:30;;;;;;;22.98;17.67;;;20.70;99.90;;;;;;5056493;28;20025;-60
2021/01/31 09:33:04;;;;;;;24.83;20.27;;;20.80;99.90;;;;;;5056055;28;20425;-60
2021/01/31 09:35:35;;;;;;;23.83;21.35;;;20.80;99.90;;;;;;5056006;28;20043;-60
2021/01/31 09:38:30;;;;;;;23.63;21.13;;;20.80;99.90;;;;;;5056055;28;20059;-60
2021/01/31 09:41:00;;;;;;;28.15;22.20;;;20.90;99.90;;;;;;5056042;28;20032;-60
2021/01/31 09:43:31;;;;;;;25.60;21.35;;;20.90;99.90;;;;;;5055796;28;20489;-61
2021/01/31 09:46:03;;;;;;;27.58;19.05;;;20.90;99.90;;;;;;5055833;28;20028;-61
2021/01/31 09:48:34;;;;;;;20.90;18.52;;;20.80;99.90;;;;;;5055816;28;20088;-61
2021/01/31 09:51:07;;;;;;;22.83;19.73;;;20.80;99.90;;;;;;5055719;28;20021;-60
2021/01/31 09:53:41;;;;;;;23.35;19.23;;;20.80;99.90;;;;;;5055743;28;20389;-60
2021/01/31 09:56:36;;;;;;;22.05;19.33;;;20.80;99.90;;;;;;5054187;28;20025;-60
2021/01/31 09:59:11;;;;;;;27.90;18.98;;;20.80;99.90;;;;;;5055492;28;20057;-60
2021/01/31 10:01:39;;;;;;;22.38;17.83;;;20.70;99.90;;;;;;5055575;28;20025;-60
2021/01/31 10:04:07;;;;;;;22.55;19.58;;;20.80;99.90;;;;;;5055376;28;20051;-60
2021/01/31 10:06:42;;;;;;;23.48;20.02;;;20.80;99.90;;;;;;5055426;28;20044;-60
2021/01/31 10:09:10;;;;;;;25.83;20.98;;;20.80;99.90;;;;;;5055355;28;20025;-60
2021/01/31 10:11:47;;;;;;;25.13;20.90;;;20.90;99.90;;;;;;5055051;28;20049;-60
2021/01/31 10:14:41;;;;;;;23.05;20.67;;;20.80;99.90;;;;;;5055364;28;20048;-62
2021/01/31 10:17:13;;;;;;;23.65;21.13;;;20.90;99.90;;;;;;5055558;28;20064;-61
2021/01/31 10:19:41;;;;;;;25.88;20.00;;;20.80;99.90;;;;;;5055084;28;20029;-60
2021/01/31 10:22:26;;;;;;;21.77;19.15;;;20.80;99.90;;;;;;5055070;28;20028;-60
2021/01/31 10:24:53;;;;;;;21.08;17.92;;;20.80;99.90;;;;;;5055248;28;20519;-61
2021/01/31 10:27:25;;;;;;;24.92;16.45;;;20.80;99.90;;;;;;5055051;28;20028;-60
2021/01/31 10:29:55;;;;;;;18.42;16.73;;;20.80;99.90;;;;;;5055327;28;20040;-60
2021/01/31 10:32:27;;;;;;;21.60;17.27;;;20.70;99.90;;;;;;5054811;28;20060;-60
2021/01/31 10:34:56;;;;;;;23.05;18.70;;;20.80;99.90;;;;;;5054803;28;20052;-60
2021/01/31 10:37:35;;;;;;;21.92;18.85;;;20.80;99.90;;;;;;5054824;28;20100;-59
2021/01/31 10:40:07;;;;;;;20.70;18.27;;;20.80;99.90;;;;;;5054790;28;20438;-60
2021/01/31 10:42:34;;;;;;;23.55;18.15;;;20.80;99.90;;;;;;5054743;28;20053;-60
2021/01/31 10:45:09;;;;;;;20.83;18.80;;;20.80;99.90;;;;;;5054610;28;20473;-60
2021/01/31 10:47:37;;;;;;;20.98;18.83;;;20.90;99.90;;;;;;5054580;28;20191;-60
2021/01/31 10:50:06;;;;;;;23.40;20.00;;;20.90;99.90;;;;;;5054701;28;20094;-59
2021/01/31 10:52:36;;;;;;;19.48;16.60;;;20.90;99.90;;;;;;5054540;28;20028;-60
2021/01/31 10:55:04;;;;;;;22.35;17.52;;;20.80;99.90;;;;;;5054451;28;20056;-60
2021/01/31 10:57:31;;;;;;;20.85;18.85;;;20.80;99.90;;;;;;5054327;28;20025;-60
2021/01/31 10:59:59;;;;;;;23.42;19.02;;;20.80;99.90;;;;;;5054452;28;20469;-60
2021/01/31 11:02:27;;;;;;;23.52;16.50;;;20.80;99.90;;;;;;5054364;28;20414;-61
2021/01/31 11:04:54;;;;;;;23.15;17.42;;;20.80;99.90;;;;;;5054246;28;20029;-61
2021/01/31 11:07:21;;;;;;;19.98;16.40;;;20.80;99.90;;;;;;5053756;28;20025;-61
2021/01/31 11:09:48;;;;;;;22.95;16.63;;;20.80;99.90;;;;;;5054240;28;20021;-61
2021/01/31 11:12:16;;;;;;;26.08;19.40;;;20.80;99.90;;;;;;5052781;28;20056;-62
2021/01/31 11:14:43;;;;;;;21.73;18.40;;;20.90;99.90;;;;;;5054128;28;20072;-60
2021/01/31 11:17:11;;;;;;;20.45;16.80;;;20.90;99.90;;;;;;5054116;28;20412;-60
2021/01/31 11:19:38;;;;;;;19.65;17.48;;;20.90;99.90;;;;;;5054025;28;20025;-60
2021/01/31 11:22:05;;;;;;;24.25;17.92;;;20.80;99.90;;;;;;5054028;28;20021;-61
2021/01/31 11:24:32;;;;;;;18.33;16.35;;;20.80;99.90;;;;;;5053868;28;20469;-60
2021/01/31 11:27:01;;;;;;;24.55;17.67;;;20.80;99.90;;;;;;5053942;28;20025;-59
2021/01/31 11:29:28;;;;;;;22.10;18.77;;;20.80;99.90;;;;;;5053899;28;20469;-59
2021/01/31 11:31:56;;;;;;;22.45;19.08;;;20.80;99.90;;;;;;5053734;28;20048;-60
2021/01/31 11:34:23;;;;;;;24.40;18.20;;;20.80;99.90;;;;;;5053748;28;20393;-62
2021/01/31 11:36:50;;;;;;;24.15;18.67;;;20.80;99.90;;;;;;5053608;28;20082;-59
2021/01/31 11:39:18;;;;;;;22.58;19.48;;;20.80;99.90;;;;;;5053996;28;20036;-60
2021/01/31 11:41:45;;;;;;;25.50;19.50;;;20.80;99.90;;;;;;5053723;28;20028;-60
2021/01/31 11:44:13;;;;;;;21.55;19.38;;;20.80;99.90;;;;;;5053541;28;20025;-59
2021/01/31 11:46:42;;;;;;;23.50;20.88;;;20.90;99.90;;;;;;5053436;28;20040;-60
2021/01/31 11:49:09;;;;;;;21.08;18.98;;;20.90;99.90;;;;;;5053524;28;20013;-59
2021/01/31 11:51:37;;;;;;;20.08;18.15;;;20.90;99.90;;;;;;5053544;28;20100;-59
2021/01/31 11:54:04;;;;;;;20.42;16.30;;;20.80;99.90;;;;;;5053720;28;20062;-60
2021/01/31 11:56:32;;;;;;;21.70;18.23;;;20.90;99.90;;;;;;5053520;28;20120;-59
2021/01/31 11:59:00;;;;;;;21.40;19.33;;;20.90;99.90;;;;;;5053330;28;20029;-61
2021/01/31 12:01:27;;;;;;;22.63;20.58;;;20.90;99.90;;;;;;5053354;28;20116;-61
2021/01/31 12:03:54;;;;;;;24.77;17.23;;;20.90;99.90;;;;;;5053374;28;20017;-60
2021/01/31 12:06:22;;;;;;;19.35;17.40;;;20.90;99.90;;;;;;5053335;28;20025;-60
2021/01/31 12:08:49;;;;;;;20.75;18.50;;;20.90;99.90;;;;;;5053343;28;20025;-60
2021/01/31 12:11:16;;;;;;;18.73;16.70;;;20.90;99.90;;;;;;5053068;28;20040;-60
2021/01/31 12:13:44;;;;;;;19.23;17.20;;;20.90;99.90;;;;;;5053398;28;20070;-59
2021/01/31 12:16:11;;;;;;;19.60;16.13;;;21.00;99.90;;;;;;5053088;28;20072;-59
2021/01/31 12:18:38;;;;;;;19.95;16.90;;;20.90;99.90;;;;;;5052494;28;20045;-58
2021/01/31 12:21:06;;;;;;;18.20;15.95;;;20.90;99.90;;;;;;5053231;28;20021;-59
2021/01/31 12:23:33;;;;;;;18.58;16.58;;;20.90;99.90;;;;;;5053015;28;20061;-59
2021/01/31 12:26:01;;;;;;;19.50;14.82;;;21.00;99.90;;;;;;5053144;28;20096;-59
2021/01/31 12:28:28;;;;;;;24.20;16.45;;;20.90;99.90;;;;;;5053013;28;20477;-59
2021/01/31 12:30:55;;;;;;;19.15;14.80;;;21.00;99.90;;;;;;5053105;28;20024;-59
2021/01/31 12:33:23;;;;;;;20.13;15.15;;;20.90;99.90;;;;;;5053151;28;20029;-60
2021/01/31 12:35:50;;;;;;;18.23;13.20;;;20.90;99.90;;;;;;5052994;28;20036;-59
2021/01/31 12:38:18;;;;;;;23.05;15.30;;;21.00;99.90;;;;;;5053071;28;20541;-59
2021/01/31 12:40:46;;;;;;;17.92;15.60;;;21.00;99.90;;;;;;5053210;28;20025;-59
2021/01/31 12:43:13;;;;;;;19.40;16.02;;;21.00;99.90;;;;;;5052979;28;20472;-60
2021/01/31 12:45:40;;;;;;;19.33;15.55;;;21.10;99.90;;;;;;5053052;28;20420;-59
2021/01/31 12:48:08;;;;;;;18.20;16.10;;;21.10;99.90;;;;;;5052898;28;20446;-60
2021/01/31 12:50:35;;;;;;;21.17;15.15;;;21.10;99.90;;;;;;5053035;28;20025;-59
2021/01/31 12:53:03;;;;;;;18.95;15.10;;;21.00;99.90;;;;;;5052964;28;20036;-59
2021/01/31 12:55:30;;;;;;;20.17;14.98;;;21.00;99.90;;;;;;5052926;28;20092;-59
2021/01/31 12:57:58;;;;;;;17.77;15.80;;;20.90;99.90;;;;;;5052721;28;20416;-59
2021/01/31 13:00:25;;;;;;;23.58;16.75;;;20.90;99.90;;;;;;5051739;28;20040;-59
2021/01/31 13:02:52;;;;;;;19.20;17.15;;;20.80;99.90;;;;;;5052763;28;20033;-60
2021/01/31 13:05:23;;;;;;;18.38;16.30;;;20.80;99.90;;;;;;5052742;28;20032;-60